Map

Track Data

SID SEASON NUMBER BASIN SUBBASIN NAME ISO_TIME NATURE LAT LON WMO_WIND WMO_PRES WMO_AGENCY TRACK_TYPE DIST2LAND LANDFALL IFLAG USA_AGENCY USA_ATCF_ID USA_LAT USA_LON USA_RECORD USA_STATUS USA_WIND USA_PRES USA_SSHS USA_R34_NE USA_R34_SE USA_R34_SW USA_R34_NW USA_R50_NE USA_R50_SE USA_R50_SW USA_R50_NW USA_R64_NE USA_R64_SE USA_R64_SW USA_R64_NW USA_POCI USA_ROCI USA_RMW USA_EYE TOKYO_LAT TOKYO_LON TOKYO_GRADE TOKYO_WIND TOKYO_PRES TOKYO_R50_DIR TOKYO_R50_LONG TOKYO_R50_SHORT TOKYO_R30_DIR TOKYO_R30_LONG TOKYO_R30_SHORT TOKYO_LAND CMA_LAT CMA_LON CMA_CAT CMA_WIND CMA_PRES HKO_LAT HKO_LON HKO_CAT HKO_WIND HKO_PRES NEWDELHI_LAT NEWDELHI_LON NEWDELHI_GRADE NEWDELHI_WIND NEWDELHI_PRES NEWDELHI_CI NEWDELHI_DP NEWDELHI_POCI REUNION_LAT REUNION_LON REUNION_TYPE REUNION_WIND REUNION_PRES REUNION_TNUM REUNION_CI REUNION_RMW REUNION_R34_NE REUNION_R34_SE REUNION_R34_SW REUNION_R34_NW REUNION_R50_NE REUNION_R50_SE REUNION_R50_SW REUNION_R50_NW REUNION_R64_NE REUNION_R64_SE REUNION_R64_SW REUNION_R64_NW BOM_LAT BOM_LON BOM_TYPE BOM_WIND BOM_PRES BOM_TNUM BOM_CI BOM_RMW BOM_R34_NE BOM_R34_SE BOM_R34_SW BOM_R34_NW BOM_R50_NE BOM_R50_SE BOM_R50_SW BOM_R50_NW BOM_R64_NE BOM_R64_SE BOM_R64_SW BOM_R64_NW BOM_ROCI BOM_POCI BOM_EYE BOM_POS_METHOD BOM_PRES_METHOD NADI_LAT NADI_LON NADI_CAT NADI_WIND NADI_PRES WELLINGTON_LAT WELLINGTON_LON WELLINGTON_WIND WELLINGTON_PRES DS824_LAT DS824_LON DS824_STAGE DS824_WIND DS824_PRES TD9636_LAT TD9636_LON TD9636_STAGE TD9636_WIND TD9636_PRES TD9635_LAT TD9635_LON TD9635_WIND TD9635_PRES TD9635_ROCI NEUMANN_LAT NEUMANN_LON NEUMANN_CLASS NEUMANN_WIND NEUMANN_PRES MLC_LAT MLC_LON MLC_CLASS MLC_WIND MLC_PRES USA_GUST BOM_GUST BOM_GUST_PER REUNION_GUST REUNION_GUST_PER USA_SEAHGT USA_SEARAD_NE USA_SEARAD_SE USA_SEARAD_SW USA_SEARAD_NW STORM_SPEED STORM_DIR
1897275N18084 1897 35 NI BB NOT_NAMED 1897-10-02 00:00:00 TS 18.0000 84.4000 main 46 38 _________O____ -1 18.0000 84.4000 TC 34 1 13
1897275N18084 1897 35 NI BB NOT_NAMED 1897-10-02 03:00:00 TS 18.0667 84.4000 main 38 33 _________PO___ -1 18.1000 84.4000 TC 36 18.0000 84.4000 2 2 0
1897275N18084 1897 35 NI BB NOT_NAMED 1897-10-02 06:00:00 TS 18.1681 84.4031 main 33 24 _________OP___ -1 18.2000 84.4000 TC 39 18.1203 84.4078 2 2 6
1897275N18084 1897 35 NI BB NOT_NAMED 1897-10-02 09:00:00 TS 18.2711 84.4053 main 24 15 _________PP___ -1 18.3000 84.4000 TC 42 18.2325 84.4125 2 2 8
1897275N18084 1897 35 NI BB NOT_NAMED 1897-10-02 12:00:00 TS 18.3642 84.4055 main 15 15 _________OP___ -1 18.4000 84.4000 TC 45 18.3284 84.4109 2 2 0
1897275N18084 1897 35 NI BB NOT_NAMED 1897-10-02 15:00:00 TS 18.4537 84.4037 main 10 10 _________PO___ -1 18.5075 84.4075 TC 41 18.4000 84.4000 3 2 0
1897275N18084 1897 35 NI BB NOT_NAMED 1897-10-02 18:00:00 TS 18.5228 84.3891 main 10 0 _________OP___ -1 18.6000 84.4000 TC 37 18.4456 84.3781 3 1 329
1897275N18084 1897 35 NI BB NOT_NAMED 1897-10-02 21:00:00 TS 18.5550 84.3500 main 0 0 _________PP___ -1 18.6200 84.3500 TC 33 18.4900 84.3500 3 1 323
1897275N18084 1897 35 NI BB NOT_NAMED 1897-10-03 00:00:00 TS 18.6322 84.3109 main 0 0 _________OP___ -1 18.7000 84.3000 TC 30 18.5644 84.3219 3 3 348
1897275N18084 1897 35 NI BB NOT_NAMED 1897-10-03 03:00:00 TS 18.8313 84.2962 main 0 0 _________PO___ -1 18.9625 84.2925 TC 30 18.7000 84.3000 1 5 357
1897275N18084 1897 35 NI BB NOT_NAMED 1897-10-03 06:00:00 TS 19.1177 84.2984 main 0 0 _________OP___ -1 19.3000 84.3000 TC 30 18.9353 84.2968 1 6 2
1897275N18084 1897 35 NI BB NOT_NAMED 1897-10-03 09:00:00 TS 19.4163 84.2999 main 0 0 _________PP___ -1 19.6000 84.3000 TC 30 19.2325 84.2999 1 6 1
1897275N18084 1897 35 NI BB NOT_NAMED 1897-10-03 12:00:00 TS 19.7317 84.3015 main 0 0 _________OP___ -1 19.9000 84.3000 TC 30 19.5635 84.3030 1 6 2
1897275N18084 1897 35 NI BB NOT_NAMED 1897-10-03 15:00:00 TS 20.0500 84.3037 main 0 0 _________PO___ -1 20.2000 84.3075 TC 30 19.9000 84.3000 1 6 0
1897275N18084 1897 35 NI BB NOT_NAMED 1897-10-03 18:00:00 TS 20.3297 84.2851 main 0 0 _________OP___ -1 20.5000 84.3000 TC 30 20.1594 84.2702 1 6 354
1897275N18084 1897 35 NI BB NOT_NAMED 1897-10-03 21:00:00 TS 20.5938 84.2427 main 0 0 _________PP___ -1 20.7625 84.2501 TC 30 20.4251 84.2354 1 6 352
1897275N18084 1897 35 NI BB NOT_NAMED 1897-10-04 00:00:00 TS 20.9141 84.2039 main 0 0 _________OP___ -1 21.1000 84.2000 TC 30 20.7282 84.2078 1 8 356
1897275N18084 1897 35 NI BB NOT_NAMED 1897-10-04 03:00:00 TS 21.3563 84.1888 main 0 0 _________PO___ -1 21.6125 84.1776 TC 30 21.1000 84.2000 1 10 0
1897275N18084 1897 35 NI BB NOT_NAMED 1897-10-04 06:00:00 TS 21.8891 84.2082 main 0 0 _________OP___ -1 22.2000 84.2000 TC 30 21.5781 84.2164 1 11 4
1897275N18084 1897 35 NI BB NOT_NAMED 1897-10-04 09:00:00 TS 22.4375 84.2701 main 0 0 _________PP___ -1 22.7500 84.2849 TC 30 22.1250 84.2552 1 11 7
1897275N18084 1897 35 NI BB NOT_NAMED 1897-10-04 12:00:00 TS 23.0047 84.3583 main 0 0 _________OP___ -1 23.3000 84.4000 TC 30 22.7094 84.3165 1 12 8
1897275N18084 1897 35 NI BB NOT_NAMED 1897-10-04 15:00:00 TS 23.5750 84.4463 main 0 0 _________PO___ -1 23.8500 84.4927 TC 30 23.3000 84.4000 1 11 9
1897275N18084 1897 35 NI BB NOT_NAMED 1897-10-04 18:00:00 TS 24.0982 84.5456 main 0 0 _________OP___ -1 24.4000 84.6000 TC 30 23.8719 84.5047 1 11 11
1897275N18084 1897 35 NI BB NOT_NAMED 1897-10-04 21:00:00 TS 24.6350 84.6717 main 0 0 _________PP___ -1 24.9500 84.7396 TC 30 24.4250 84.6264 1 11 13
1897275N18084 1897 35 NI BB NOT_NAMED 1897-10-05 00:00:00 TS 25.1438 84.8066 main 0 0 _________OP___ -1 25.5000 84.9000 TC 30 24.9657 84.7599 1 9 13
1897275N18084 1897 35 NI BB NOT_NAMED 1897-10-05 03:00:00 NR 25.5000 84.9000 main 0 __________O___ -1 TC 25.5000 84.9000 1 7 14

About IBTrACS Database

This database is a web-friendly format of International Best Track Archive for Climate Stewardship (IBTrACS), a global best track data archive curated by NOAA dating back to 1842.

Updated: 2021-10-21